Time;durP1;ratioP1;P1;durP2;ratioP2;P2;SDS_P1;SDS_P2;PMS_P1;PMS_P2;Temp;Humidity;BMP_temperature;BMP_pressure;BME280_temperature;BME280_humidity;BME280_pressure;Samples;Min_cycle;Max_cycle;Signal;HPM_P1;HPM_P2
2021/12/11 00:01:48;;;;;;;27.88;9.60;;;9.50;83.10;;;;;;4921797;29;20063;-83
2021/12/11 00:04:18;;;;;;;28.52;9.13;;;9.50;83.00;;;;;;4923119;29;20026;-83
2021/12/11 00:06:47;;;;;;;20.48;9.18;;;9.50;83.10;;;;;;4922475;29;20114;-85
2021/12/11 00:09:27;;;;;;;23.70;9.07;;;9.50;83.00;;;;;;4923710;29;20056;-86
2021/12/11 00:12:31;;;;;;;25.20;9.37;;;9.50;83.00;;;;;;4922453;29;20035;-86
2021/12/11 00:15:10;;;;;;;17.20;9.10;;;9.50;83.10;;;;;;4939475;29;20404;-85
2021/12/11 00:17:36;;;;;;;16.48;8.55;;;9.50;83.10;;;;;;4922628;29;20028;-84
2021/12/11 00:20:07;;;;;;;18.48;9.25;;;9.50;83.00;;;;;;4923377;29;20476;-85
2021/12/11 00:22:32;;;;;;;18.27;9.13;;;9.50;83.00;;;;;;4922953;29;20106;-84
2021/12/11 00:25:08;;;;;;;18.13;8.48;;;9.50;83.00;;;;;;4923735;29;20058;-85
2021/12/11 00:27:38;;;;;;;19.27;8.13;;;9.50;83.00;;;;;;4922988;29;20491;-85
2021/12/11 00:30:06;;;;;;;14.57;9.18;;;9.50;83.00;;;;;;4923992;29;20028;-85
2021/12/11 00:32:33;;;;;;;14.10;8.80;;;9.50;83.00;;;;;;4924686;29;20103;-87
2021/12/11 00:35:14;;;;;;;14.23;8.90;;;9.50;83.00;;;;;;4925376;29;20031;-86
2021/12/11 00:37:40;;;;;;;15.32;9.02;;;9.50;83.00;;;;;;4924707;29;20487;-85
2021/12/11 00:40:16;;;;;;;14.10;9.05;;;9.50;83.00;;;;;;4924325;29;20028;-86
2021/12/11 00:42:50;;;;;;;14.48;8.80;;;9.50;83.00;;;;;;4924651;29;20042;-86
2021/12/11 00:45:22;;;;;;;13.82;8.85;;;9.50;83.00;;;;;;4925975;29;20044;-86
2021/12/11 00:47:51;;;;;;;13.48;8.00;;;9.50;83.00;;;;;;4926033;29;20035;-86
2021/12/11 00:50:20;;;;;;;11.98;8.30;;;9.50;83.00;;;;;;4925808;29;20032;-86
2021/12/11 00:52:53;;;;;;;13.38;8.32;;;9.50;83.00;;;;;;4926101;29;20027;-86
2021/12/11 00:55:38;;;;;;;14.02;8.85;;;9.50;83.00;;;;;;4925321;29;20114;-85
2021/12/11 00:58:19;;;;;;;12.23;8.10;;;9.50;83.00;;;;;;4926876;29;20035;-86
2021/12/11 01:00:45;;;;;;;12.15;8.40;;;9.50;83.00;;;;;;4925677;29;20034;-85
2021/12/11 01:03:14;;;;;;;14.23;7.72;;;9.50;83.00;;;;;;4925661;29;20231;-84
2021/12/11 01:05:43;;;;;;;11.60;8.18;;;9.50;83.00;;;;;;4924877;29;20060;-86
2021/12/11 01:08:31;;;;;;;13.70;8.77;;;9.50;83.00;;;;;;4925675;29;20028;-86
2021/12/11 01:11:10;;;;;;;12.10;7.78;;;9.40;82.90;;;;;;4923856;29;20028;-86
2021/12/11 01:13:44;;;;;;;11.95;8.10;;;9.50;83.00;;;;;;4927433;29;20034;-86
2021/12/11 01:16:13;;;;;;;12.05;7.93;;;9.50;83.00;;;;;;4928752;29;20111;-85
2021/12/11 01:18:42;;;;;;;11.32;8.05;;;9.50;82.90;;;;;;4929961;29;20031;-85
2021/12/11 01:24:28;;;;;;;12.75;8.25;;;9.40;82.80;;;;;;4948043;29;20031;-86
2021/12/11 01:26:59;;;;;;;12.88;8.30;;;9.50;82.90;;;;;;4928122;29;20024;-85
2021/12/11 01:29:25;;;;;;;11.60;8.18;;;9.50;82.90;;;;;;4928829;29;20030;-85
2021/12/11 01:31:52;;;;;;;10.57;7.40;;;9.60;82.90;;;;;;4928236;29;20028;-85
2021/12/11 01:34:19;;;;;;;12.75;8.68;;;9.50;82.90;;;;;;4928758;29;20027;-85
2021/12/11 01:36:46;;;;;;;11.60;8.00;;;9.50;82.90;;;;;;4927281;29;20050;-85
2021/12/11 01:39:16;;;;;;;11.52;8.13;;;9.50;82.90;;;;;;4928125;29;20064;-87
2021/12/11 01:41:48;;;;;;;11.90;7.85;;;9.50;82.90;;;;;;4927874;29;20048;-85
2021/12/11 01:44:20;;;;;;;11.48;8.20;;;9.50;82.80;;;;;;4927612;29;20039;-86
2021/12/11 01:46:46;;;;;;;13.48;8.20;;;9.50;82.90;;;;;;4926668;29;20024;-86
2021/12/11 01:49:16;;;;;;;13.13;8.32;;;9.40;82.80;;;;;;4925523;29;20475;-85
2021/12/11 01:51:47;;;;;;;10.80;7.75;;;9.50;82.80;;;;;;4925352;29;20055;-86
2021/12/11 01:54:18;;;;;;;10.32;7.95;;;9.40;82.80;;;;;;4925420;29;20024;-85
2021/12/11 01:56:48;;;;;;;12.13;7.70;;;9.40;82.80;;;;;;4925985;29;20024;-84
2021/12/11 01:59:22;;;;;;;11.05;8.07;;;9.40;82.80;;;;;;4926387;29;20047;-85
2021/12/11 02:01:54;;;;;;;10.05;7.90;;;9.40;82.80;;;;;;4925509;29;20027;-85
2021/12/11 02:04:21;;;;;;;;;;;9.40;82.80;;;;;;4925765;29;20398;-85
2021/12/11 02:06:52;;;;;;;14.20;7.97;;;9.40;82.80;;;;;;4926714;29;19984;-85
2021/12/11 02:09:24;;;;;;;12.70;8.15;;;9.40;82.80;;;;;;4925869;29;20047;-85
2021/12/11 02:11:59;;;;;;;;;;;9.40;82.80;;;;;;4926418;29;20024;-87
2021/12/11 02:14:32;;;;;;;12.30;7.90;;;9.50;82.90;;;;;;4925802;29;20017;-86
2021/12/11 02:16:59;;;;;;;11.20;7.68;;;9.40;82.70;;;;;;4925727;29;20034;-86
2021/12/11 02:19:32;;;;;;;12.27;8.18;;;9.50;82.80;;;;;;4927376;29;20024;-86
2021/12/11 02:22:00;;;;;;;11.45;7.45;;;9.40;82.70;;;;;;4927176;29;20491;-86
2021/12/11 02:24:38;;;;;;;10.02;7.50;;;9.40;82.70;;;;;;4927999;29;20028;-85
2021/12/11 02:27:17;;;;;;;11.45;7.97;;;9.40;82.70;;;;;;4927332;29;20027;-86
2021/12/11 02:29:59;;;;;;;10.43;7.68;;;9.40;82.70;;;;;;4924839;29;20028;-87
2021/12/11 02:32:39;;;;;;;10.88;7.80;;;9.40;82.60;;;;;;4925068;29;20051;-86
2021/12/11 02:35:20;;;;;;;12.20;8.07;;;9.40;82.70;;;;;;4924326;29;20103;-87
2021/12/11 02:37:59;;;;;;;11.90;7.45;;;9.40;82.60;;;;;;4924755;29;20055;-87
2021/12/11 02:40:40;;;;;;;12.57;8.35;;;9.40;82.60;;;;;;4924479;29;20091;-86
2021/12/11 02:43:20;;;;;;;12.38;7.95;;;9.40;82.60;;;;;;4924543;29;20038;-86
2021/12/11 02:45:56;;;;;;;11.52;7.90;;;9.40;82.60;;;;;;4925056;29;20483;-87
2021/12/11 02:48:32;;;;;;;13.20;8.55;;;9.40;83.10;;;;;;4925468;29;20036;-83
2021/12/11 02:51:04;;;;;;;12.10;7.40;;;9.40;82.60;;;;;;4924734;29;20031;-86
2021/12/11 02:53:37;;;;;;;10.32;7.55;;;9.40;82.60;;;;;;4926699;29;20024;-87
2021/12/11 02:56:31;;;;;;;12.10;8.30;;;9.40;82.60;;;;;;4926593;29;20035;-87
2021/12/11 02:59:00;;;;;;;12.50;7.53;;;9.40;82.60;;;;;;4927632;29;20122;-87
2021/12/11 03:01:40;;;;;;;11.77;8.48;;;9.40;82.60;;;;;;4926171;29;20028;-86
2021/12/11 03:04:22;;;;;;;12.30;7.60;;;9.40;82.50;;;;;;4925538;29;20027;-87
2021/12/11 03:06:51;;;;;;;11.02;7.82;;;9.40;82.60;;;;;;4926823;29;20046;-87
2021/12/11 03:09:22;;;;;;;11.65;8.00;;;9.40;82.50;;;;;;4926390;29;20024;-87
2021/12/11 03:11:49;;;;;;;12.45;8.10;;;9.40;82.50;;;;;;4926998;29;20084;-87
2021/12/11 03:14:18;;;;;;;11.48;8.18;;;9.40;82.50;;;;;;4926779;29;20024;-88
2021/12/11 03:16:44;;;;;;;11.27;8.25;;;9.40;82.50;;;;;;4925828;29;20019;-87
2021/12/11 03:19:14;;;;;;;11.07;7.90;;;9.40;82.50;;;;;;4925861;29;20030;-88
2021/12/11 03:21:41;;;;;;;11.52;8.48;;;9.40;82.50;;;;;;4925756;29;20020;-87
2021/12/11 03:24:09;;;;;;;10.90;7.95;;;9.40;82.50;;;;;;4922464;29;20039;-87
2021/12/11 03:26:36;;;;;;;12.38;7.93;;;9.40;82.50;;;;;;4924777;29;20035;-87
2021/12/11 03:29:02;;;;;;;11.18;8.43;;;9.40;82.50;;;;;;4924382;29;20118;-86
2021/12/11 03:31:28;;;;;;;12.15;8.43;;;9.40;82.50;;;;;;4924645;29;20031;-87
2021/12/11 03:33:57;;;;;;;11.15;8.13;;;9.40;82.50;;;;;;4924764;29;20024;-87
2021/12/11 03:36:26;;;;;;;11.13;8.07;;;9.40;82.50;;;;;;4940768;29;20027;-86
2021/12/11 03:38:56;;;;;;;10.95;8.43;;;9.40;82.50;;;;;;4924938;29;20103;-87
2021/12/11 03:41:23;;;;;;;12.70;8.77;;;9.40;82.50;;;;;;4924982;29;20538;-87
2021/12/11 03:43:49;;;;;;;12.15;8.35;;;9.40;82.50;;;;;;4984830;23;20044;-76
2021/12/11 03:46:15;;;;;;;11.15;8.10;;;9.40;82.50;;;;;;4935134;29;20071;-76
2021/12/11 03:48:48;;;;;;;12.25;8.20;;;9.40;82.50;;;;;;4934074;29;20079;-75
2021/12/11 03:51:17;;;;;;;10.60;8.60;;;9.40;82.50;;;;;;4934005;29;20385;-75
2021/12/11 03:53:43;;;;;;;11.55;8.20;;;9.40;82.60;;;;;;4924189;29;20051;-74
2021/12/11 03:56:12;;;;;;;10.90;8.25;;;9.40;82.60;;;;;;4915065;29;20480;-75
2021/12/11 03:58:39;;;;;;;12.05;8.35;;;9.30;82.50;;;;;;4916067;29;20404;-75
2021/12/11 04:01:09;;;;;;;10.30;8.13;;;9.40;82.60;;;;;;4914872;29;20171;-75
2021/12/11 04:03:38;;;;;;;10.80;8.35;;;9.40;82.60;;;;;;4915048;29;20028;-75
2021/12/11 04:06:08;;;;;;;10.18;7.90;;;9.40;82.60;;;;;;4914965;29;20128;-75
2021/12/11 04:08:40;;;;;;;12.93;8.55;;;9.40;82.60;;;;;;4914928;29;20103;-75
2021/12/11 04:11:09;;;;;;;11.65;8.05;;;9.40;82.60;;;;;;4914805;29;20064;-76
2021/12/11 04:13:35;;;;;;;10.95;8.40;;;9.40;82.60;;;;;;4914896;29;20036;-76
2021/12/11 04:16:00;;;;;;;10.02;7.95;;;9.40;82.60;;;;;;4914950;29;20119;-76
2021/12/11 04:18:26;;;;;;;12.55;8.45;;;9.40;82.60;;;;;;4916259;29;20092;-75
2021/12/11 04:20:52;;;;;;;12.15;8.32;;;9.30;82.60;;;;;;4914638;29;20020;-75
2021/12/11 04:23:19;;;;;;;10.85;8.52;;;9.40;82.60;;;;;;4915945;29;20105;-75
2021/12/11 04:25:48;;;;;;;11.93;8.93;;;9.30;82.60;;;;;;4914835;29;20484;-75
2021/12/11 04:28:16;;;;;;;10.48;8.38;;;9.40;82.70;;;;;;4916028;29;20377;-75
2021/12/11 04:30:42;;;;;;;11.20;8.32;;;9.30;82.60;;;;;;4915848;29;20024;-75
2021/12/11 04:33:08;;;;;;;10.93;8.50;;;9.40;82.70;;;;;;4915921;29;20028;-75
2021/12/11 04:35:34;;;;;;;11.18;8.18;;;9.40;82.70;;;;;;4914768;29;20039;-75
2021/12/11 04:38:03;;;;;;;12.23;8.60;;;9.40;82.70;;;;;;4914757;29;20028;-75
2021/12/11 04:40:36;;;;;;;11.88;8.50;;;9.30;82.60;;;;;;4914539;29;20079;-76
2021/12/11 04:43:08;;;;;;;12.02;8.82;;;9.40;82.60;;;;;;4914538;29;20028;-76
2021/12/11 04:45:48;;;;;;;;;;;9.30;82.60;;;;;;4916414;29;20024;-74
2021/12/11 04:56:16;;;;;;;11.68;8.35;;;9.30;82.60;;;;;;4919250;29;20028;-74
2021/12/11 05:01:38;;;;;;;11.35;8.98;;;9.40;82.40;;;;;;4919401;29;20079;-75
2021/12/11 05:09:20;;;;;;;11.25;8.68;;;9.40;82.10;;;;;;4919094;29;20039;-73
2021/12/11 05:11:56;;;;;;;11.38;8.98;;;9.40;82.00;;;;;;4917875;29;20127;-75
2021/12/11 05:14:24;;;;;;;11.50;8.80;;;9.50;82.00;;;;;;4917824;29;20432;-75
2021/12/11 05:16:51;;;;;;;11.52;8.82;;;9.40;81.90;;;;;;4917897;29;20025;-75
2021/12/11 05:19:17;;;;;;;11.68;8.63;;;9.50;81.90;;;;;;4914867;29;20043;-75
2021/12/11 05:21:43;;;;;;;10.70;8.70;;;9.50;81.90;;;;;;4913850;29;20119;-73
2021/12/11 05:24:10;;;;;;;12.60;8.82;;;9.50;81.90;;;;;;4914644;29;20464;-73
2021/12/11 05:26:36;;;;;;;11.43;8.90;;;9.50;81.80;;;;;;4900820;29;20599;-75
2021/12/11 05:29:03;;;;;;;12.55;8.80;;;9.50;81.70;;;;;;4906871;29;20040;-75
2021/12/11 05:31:29;;;;;;;12.65;8.55;;;9.50;81.70;;;;;;4912854;29;20554;-73
2021/12/11 05:33:55;;;;;;;11.77;9.02;;;9.50;81.70;;;;;;4910979;29;20028;-75
2021/12/11 05:36:21;;;;;;;11.40;8.43;;;9.50;81.70;;;;;;4897753;29;20085;-72
2021/12/11 05:38:48;;;;;;;12.57;9.07;;;9.50;81.70;;;;;;4895730;29;20025;-75
2021/12/11 05:41:16;;;;;;;11.63;8.65;;;9.50;81.70;;;;;;4894021;29;20028;-74
2021/12/11 05:43:43;;;;;;;12.18;8.70;;;9.60;81.80;;;;;;4893888;29;20040;-76
2021/12/11 05:46:11;;;;;;;11.90;8.63;;;9.50;81.70;;;;;;4894299;29;20057;-74
2021/12/11 05:48:38;;;;;;;11.90;8.93;;;9.50;81.70;;;;;;4897319;29;20042;-73
2021/12/11 05:51:07;;;;;;;11.70;8.65;;;9.50;81.70;;;;;;4913049;29;20411;-77
2021/12/11 05:53:34;;;;;;;11.38;9.15;;;9.50;81.50;;;;;;4913390;29;20403;-75
2021/12/11 05:56:06;;;;;;;13.23;8.98;;;9.50;81.50;;;;;;4928840;29;20032;-75
2021/12/11 05:58:46;;;;;;;13.45;9.65;;;9.50;81.50;;;;;;4912337;29;20518;-72
2021/12/11 06:01:20;;;;;;;11.43;9.25;;;9.50;81.60;;;;;;4912903;29;20036;-71
2021/12/11 06:03:47;;;;;;;11.20;9.20;;;9.50;81.60;;;;;;4912625;29;20496;-72
2021/12/11 06:06:12;;;;;;;11.75;9.30;;;9.40;81.60;;;;;;4912658;29;20507;-73
2021/12/11 06:08:38;;;;;;;13.40;8.93;;;9.40;81.70;;;;;;4912619;29;20032;-75
2021/12/11 06:11:05;;;;;;;12.30;9.05;;;9.40;81.80;;;;;;4914969;29;20489;-75
2021/12/11 06:13:31;;;;;;;10.48;8.52;;;9.40;81.90;;;;;;4914208;29;20040;-76
2021/12/11 06:15:59;;;;;;;11.30;8.73;;;9.30;81.90;;;;;;4912543;29;20587;-76
2021/12/11 06:18:25;;;;;;;12.10;8.80;;;9.30;81.80;;;;;;4914208;29;20118;-76
2021/12/11 06:20:53;;;;;;;11.93;9.13;;;9.30;81.80;;;;;;4914486;29;20453;-76
2021/12/11 06:23:19;;;;;;;29.67;10.45;;;9.30;81.80;;;;;;4912677;29;20020;-79
2021/12/11 06:25:46;;;;;;;25.33;9.85;;;9.30;82.60;;;;;;4912980;29;20024;-78
2021/12/11 06:28:12;;;;;;;21.75;9.63;;;9.40;82.80;;;;;;4912916;29;20411;-76
2021/12/11 06:30:40;;;;;;;17.77;8.98;;;9.30;82.90;;;;;;4928411;29;20028;-76
2021/12/11 06:33:06;;;;;;;22.75;9.27;;;9.40;83.20;;;;;;4912313;29;20103;-75
2021/12/11 06:35:39;;;;;;;23.27;9.60;;;9.40;83.40;;;;;;4912605;29;20235;-75
2021/12/11 06:38:07;;;;;;;16.70;9.15;;;9.40;83.30;;;;;;4912540;29;20451;-76
2021/12/11 06:40:33;;;;;;;20.02;8.85;;;9.50;83.50;;;;;;4902800;29;20028;-76
2021/12/11 06:42:59;;;;;;;19.75;8.85;;;9.50;83.50;;;;;;4905384;29;20024;-75
2021/12/11 06:45:26;;;;;;;16.92;9.82;;;9.50;83.80;;;;;;4893168;29;20119;-78
2021/12/11 06:47:53;;;;;;;16.20;8.70;;;9.50;83.50;;;;;;4893060;29;20044;-77
2021/12/11 06:50:19;;;;;;;15.88;8.38;;;9.60;83.70;;;;;;4894518;29;20025;-76
2021/12/11 06:52:46;;;;;;;15.95;8.80;;;9.60;83.70;;;;;;4893456;29;20544;-76
2021/12/11 06:55:12;;;;;;;14.85;7.88;;;9.60;84.00;;;;;;4914826;29;20043;-77
2021/12/11 06:57:38;;;;;;;16.15;7.78;;;9.70;84.70;;;;;;4932671;29;20139;-77
2021/12/11 07:00:05;;;;;;;19.45;8.45;;;9.70;84.90;;;;;;4934401;29;20047;-76
2021/12/11 07:02:31;;;;;;;20.50;8.63;;;9.80;85.20;;;;;;4934586;29;20060;-78
2021/12/11 07:04:57;;;;;;;16.92;8.23;;;9.80;83.50;;;;;;4936044;29;20062;-77
2021/12/11 07:07:31;;;;;;;19.88;8.85;;;9.80;83.00;;;;;;4934567;29;20188;-78
2021/12/11 07:09:57;;;;;;;13.35;8.45;;;9.80;82.20;;;;;;4934557;29;20506;-78
2021/12/11 07:12:22;;;;;;;16.13;8.30;;;9.80;82.00;;;;;;4934755;29;20123;-77
2021/12/11 07:14:49;;;;;;;12.18;8.45;;;9.80;82.00;;;;;;4934597;29;20023;-77
2021/12/11 07:17:15;;;;;;;15.13;8.57;;;9.80;82.00;;;;;;4935829;29;20032;-76
2021/12/11 07:19:40;;;;;;;15.48;8.50;;;9.80;81.70;;;;;;4935573;29;20030;-77
2021/12/11 07:22:07;;;;;;;14.68;9.02;;;9.70;81.60;;;;;;4934727;29;20024;-77
2021/12/11 07:24:39;;;;;;;14.38;9.35;;;9.70;81.70;;;;;;4934790;29;20083;-76
2021/12/11 07:27:07;;;;;;;14.75;9.07;;;9.70;81.60;;;;;;4934535;29;20024;-77
2021/12/11 07:29:34;;;;;;;14.70;8.95;;;9.70;82.00;;;;;;4934307;29;20023;-78
2021/12/11 07:32:00;;;;;;;14.48;10.13;;;9.70;81.90;;;;;;4935576;29;20083;-76
2021/12/11 07:34:26;;;;;;;13.07;8.75;;;9.70;81.80;;;;;;4934306;29;20028;-78
2021/12/11 07:36:52;;;;;;;14.30;9.70;;;9.70;81.80;;;;;;4934242;29;20090;-79
2021/12/11 07:39:20;;;;;;;13.30;9.88;;;9.60;81.70;;;;;;4934286;29;20059;-75
2021/12/11 07:41:46;;;;;;;13.73;9.63;;;9.60;81.70;;;;;;4935393;29;20102;-76
2021/12/11 07:44:12;;;;;;;15.98;10.10;;;9.60;81.50;;;;;;4934076;29;20377;-76
2021/12/11 07:46:38;;;;;;;15.23;9.70;;;9.60;81.60;;;;;;4935308;29;20034;-78
2021/12/11 07:49:04;;;;;;;15.38;10.25;;;9.60;81.50;;;;;;4934102;29;20035;-77
2021/12/11 07:51:32;;;;;;;16.27;10.25;;;9.50;81.50;;;;;;4926307;29;20035;-76
2021/12/11 07:53:59;;;;;;;15.50;10.32;;;9.60;81.50;;;;;;4906951;29;20087;-76
2021/12/11 07:56:25;;;;;;;15.13;10.50;;;9.50;81.50;;;;;;4896126;29;20154;-76
2021/12/11 07:58:55;;;;;;;14.90;10.45;;;9.50;81.50;;;;;;4909941;29;20128;-77
2021/12/11 08:01:21;;;;;;;14.32;9.73;;;9.50;82.00;;;;;;4915303;29;20495;-76
2021/12/11 08:03:46;;;;;;;14.85;10.02;;;9.50;81.60;;;;;;4915004;29;20076;-76
2021/12/11 08:06:13;;;;;;;14.60;9.70;;;9.50;81.40;;;;;;4915254;29;20020;-77
2021/12/11 08:08:41;;;;;;;14.68;9.85;;;9.50;81.40;;;;;;4916095;29;20036;-76
2021/12/11 08:11:12;;;;;;;13.60;10.05;;;9.50;81.40;;;;;;4916007;29;20095;-78
2021/12/11 08:13:39;;;;;;;;;;;9.50;81.40;;;;;;4915389;29;20030;-76
2021/12/11 08:16:05;;;;;;;15.13;10.23;;;9.50;81.30;;;;;;4916226;29;19907;-77
2021/12/11 08:18:30;;;;;;;15.38;9.57;;;9.50;81.20;;;;;;4916245;29;20154;-76
2021/12/11 08:20:56;;;;;;;15.05;10.15;;;9.50;81.40;;;;;;4914758;29;20075;-76
2021/12/11 08:23:22;;;;;;;14.60;10.30;;;9.50;81.30;;;;;;4918240;29;20020;-76
2021/12/11 08:25:50;;;;;;;16.05;10.50;;;9.50;81.30;;;;;;4919498;29;20024;-76
2021/12/11 08:28:23;;;;;;;15.77;10.48;;;9.50;81.30;;;;;;4919318;29;20036;-76
2021/12/11 08:30:50;;;;;;;17.50;10.32;;;9.50;81.10;;;;;;4917888;29;20424;-76
2021/12/11 08:33:16;;;;;;;15.25;10.15;;;9.50;81.10;;;;;;4919231;29;20032;-76
2021/12/11 08:35:44;;;;;;;13.65;9.70;;;9.50;80.90;;;;;;4918080;29;20060;-76
2021/12/11 08:38:10;;;;;;;14.30;10.15;;;9.60;81.00;;;;;;4919106;29;20453;-76
2021/12/11 08:40:40;;;;;;;14.32;10.82;;;9.60;80.80;;;;;;4918824;29;20590;-76
2021/12/11 08:43:08;;;;;;;13.57;9.65;;;9.60;80.60;;;;;;4917746;29;20032;-78
2021/12/11 08:45:45;;;;;;;15.75;10.70;;;9.60;80.60;;;;;;4917888;29;20051;-76
2021/12/11 08:48:18;;;;;;;14.05;10.40;;;9.70;80.80;;;;;;4918468;29;20028;-76
2021/12/11 08:50:47;;;;;;;19.73;11.50;;;9.70;80.90;;;;;;4918312;29;20088;-76
2021/12/11 08:53:13;;;;;;;18.75;12.82;;;9.70;76.90;;;;;;4919383;29;20032;-75
2021/12/11 08:55:42;;;;;;;19.20;12.10;;;9.50;71.70;;;;;;4917939;29;20024;-76
2021/12/11 08:58:10;;;;;;;17.42;12.73;;;9.40;73.60;;;;;;4919378;29;20122;-77
2021/12/11 09:00:46;;;;;;;20.23;11.77;;;9.40;75.40;;;;;;4917939;29;20153;-77
2021/12/11 09:03:37;;;;;;;47.45;14.13;;;9.40;76.10;;;;;;4917588;29;20031;-77
2021/12/11 09:06:13;;;;;;;33.13;13.15;;;9.50;76.50;;;;;;4918915;29;20051;-78
2021/12/11 09:08:55;;;;;;;34.15;14.55;;;9.50;76.50;;;;;;4917303;29;20166;-77
2021/12/11 09:11:33;;;;;;;28.25;13.20;;;9.60;76.50;;;;;;4919225;29;20024;-77
2021/12/11 09:14:26;;;;;;;25.35;12.40;;;9.60;76.90;;;;;;4917076;29;20032;-76
2021/12/11 09:17:08;;;;;;;21.73;12.63;;;9.70;76.80;;;;;;4913023;29;20040;-77
2021/12/11 09:19:39;;;;;;;22.20;11.85;;;9.70;76.80;;;;;;4918704;29;20079;-76
2021/12/11 09:22:16;;;;;;;23.87;12.63;;;9.80;76.90;;;;;;4918581;29;20028;-77
2021/12/11 09:24:51;;;;;;;18.77;12.07;;;9.80;76.90;;;;;;4917665;29;20024;-78
2021/12/11 09:27:28;;;;;;;21.20;12.20;;;9.80;77.10;;;;;;4917955;29;20427;-76
2021/12/11 09:30:12;;;;;;;24.65;12.85;;;9.80;76.80;;;;;;4918638;29;20025;-76
2021/12/11 09:32:44;;;;;;;23.40;12.50;;;9.80;76.80;;;;;;4917427;29;20029;-77
2021/12/11 09:35:15;;;;;;;;;;;9.80;74.30;;;;;;4917340;29;20122;-77
2021/12/11 09:37:43;;;;;;;25.92;12.93;;;9.80;75.90;;;;;;4917649;29;19962;-77
2021/12/11 09:40:19;;;;;;;22.10;12.60;;;9.80;75.10;;;;;;4917333;29;20550;-77
2021/12/11 09:42:44;;;;;;;20.75;12.98;;;9.80;75.40;;;;;;4917598;29;20071;-80
2021/12/11 09:45:14;;;;;;;23.50;13.07;;;9.90;75.10;;;;;;4969127;23;20403;-77
2021/12/11 09:47:50;;;;;;;23.75;13.07;;;9.90;75.50;;;;;;4956544;29;20058;-77
2021/12/11 09:50:22;;;;;;;18.88;11.88;;;9.90;75.70;;;;;;4939326;29;20498;-76
2021/12/11 09:52:49;;;;;;;20.65;12.85;;;9.90;75.90;;;;;;4939505;29;20038;-77
2021/12/11 09:55:26;;;;;;;19.40;12.13;;;9.80;75.80;;;;;;4939281;29;20175;-77
2021/12/11 09:57:55;;;;;;;15.75;12.13;;;9.90;75.80;;;;;;4956212;29;20042;-77
2021/12/11 10:00:43;;;;;;;22.00;11.82;;;9.90;76.10;;;;;;4938595;29;20030;-77
2021/12/11 10:03:11;;;;;;;17.02;12.20;;;9.90;75.90;;;;;;4939080;29;20110;-77
2021/12/11 10:05:49;;;;;;;16.33;11.73;;;9.90;76.00;;;;;;4938907;29;20038;-77
2021/12/11 10:08:36;;;;;;;16.77;12.43;;;9.90;76.00;;;;;;4938909;29;20028;-77
2021/12/11 10:11:01;;;;;;;16.95;12.32;;;9.80;76.60;;;;;;4938804;29;20031;-77
2021/12/11 10:13:29;;;;;;;20.48;12.77;;;9.90;76.60;;;;;;4938685;29;20027;-77
2021/12/11 10:15:55;;;;;;;17.25;12.70;;;9.90;77.20;;;;;;4938772;29;20023;-78
2021/12/11 10:18:24;;;;;;;20.02;12.77;;;9.80;76.40;;;;;;4938757;29;20038;-77
2021/12/11 10:21:13;;;;;;;16.15;12.07;;;9.80;76.80;;;;;;4955575;29;20023;-77
2021/12/11 10:23:41;;;;;;;18.60;12.60;;;9.80;76.90;;;;;;4937965;29;20134;-77
2021/12/11 10:26:10;;;;;;;16.98;12.20;;;9.80;76.90;;;;;;4938510;29;20027;-78
2021/12/11 10:28:41;;;;;;;15.85;11.73;;;9.80;77.00;;;;;;4938296;29;20027;-77
2021/12/11 10:31:15;;;;;;;14.88;11.88;;;9.80;77.10;;;;;;4955506;29;20403;-77
2021/12/11 10:33:41;;;;;;;17.58;12.85;;;9.70;77.30;;;;;;4938356;29;20118;-77
2021/12/11 10:36:11;;;;;;;16.17;12.45;;;9.70;77.60;;;;;;4938564;29;20149;-78
2021/12/11 10:38:38;;;;;;;16.55;12.27;;;9.70;77.50;;;;;;4938322;29;20044;-77
2021/12/11 10:41:06;;;;;;;15.60;13.30;;;9.60;77.80;;;;;;4937838;29;20030;-78
2021/12/11 10:43:42;;;;;;;16.55;13.10;;;9.60;77.90;;;;;;4937874;29;20023;-77
2021/12/11 10:46:11;;;;;;;117.20;20.60;;;9.60;78.00;;;;;;4939015;29;20031;-77
2021/12/11 10:48:37;;;;;;;114.35;23.13;;;9.60;75.90;;;;;;4940651;29;20486;-76
2021/12/11 10:51:10;;;;;;;54.92;15.63;;;9.50;74.40;;;;;;4956584;29;20041;-76
2021/12/11 10:53:38;;;;;;;32.95;15.70;;;9.40;74.20;;;;;;4956328;29;20051;-76
2021/12/11 10:56:06;;;;;;;23.63;14.05;;;9.50;74.70;;;;;;4940284;29;20027;-77
2021/12/11 10:58:44;;;;;;;22.75;14.23;;;9.50;75.50;;;;;;4940093;29;20023;-78
2021/12/11 11:01:17;;;;;;;21.42;14.45;;;9.60;76.00;;;;;;4940458;29;20027;-77
2021/12/11 11:03:47;;;;;;;21.40;15.07;;;9.60;76.50;;;;;;4940798;29;20655;-76
2021/12/11 11:06:14;;;;;;;22.95;14.38;;;9.60;76.90;;;;;;4940417;29;20139;-76
2021/12/11 11:08:40;;;;;;;23.60;14.52;;;9.60;77.10;;;;;;4940231;29;20042;-76
2021/12/11 11:11:10;;;;;;;19.83;14.20;;;9.60;77.40;;;;;;4940404;29;20061;-77
2021/12/11 11:13:36;;;;;;;22.50;13.85;;;9.60;77.50;;;;;;4940516;29;20372;-76
2021/12/11 11:16:01;;;;;;;23.40;15.10;;;9.60;77.60;;;;;;4939600;29;20114;-77
2021/12/11 11:18:28;;;;;;;19.02;15.18;;;9.60;77.70;;;;;;4940056;29;20027;-77
2021/12/11 11:20:57;;;;;;;18.70;14.88;;;9.70;77.80;;;;;;4957500;29;20071;-76
2021/12/11 11:23:24;;;;;;;19.90;15.80;;;9.60;77.90;;;;;;4940754;29;20024;-77
2021/12/11 11:25:53;;;;;;;21.52;15.38;;;9.60;77.90;;;;;;4940410;29;20114;-77
2021/12/11 11:28:30;;;;;;;21.17;15.63;;;9.60;78.00;;;;;;4957952;29;20650;-77
2021/12/11 11:31:18;;;;;;;21.02;15.55;;;9.70;78.10;;;;;;4940574;29;20058;-76
2021/12/11 11:33:46;;;;;;;19.98;15.35;;;9.60;78.00;;;;;;4941392;29;20024;-80
2021/12/11 11:36:15;;;;;;;25.90;15.70;;;9.70;78.00;;;;;;4953055;29;20108;-78
2021/12/11 11:38:44;;;;;;;21.65;17.05;;;9.70;77.90;;;;;;4934531;29;20028;-76
2021/12/11 11:41:25;;;;;;;20.48;15.95;;;9.70;77.90;;;;;;4922712;29;20115;-77
2021/12/11 11:43:52;;;;;;;19.80;15.65;;;9.60;77.90;;;;;;4919781;29;20562;-77
2021/12/11 11:46:17;;;;;;;21.17;15.82;;;9.70;78.00;;;;;;4919004;29;20041;-77
2021/12/11 11:48:47;;;;;;;21.65;16.75;;;9.60;78.00;;;;;;4918994;29;20035;-77
2021/12/11 11:51:18;;;;;;;21.48;16.98;;;9.60;78.00;;;;;;4918576;29;20040;-77
2021/12/11 11:53:45;;;;;;;21.35;16.73;;;9.60;78.20;;;;;;4918925;29;20059;-78
2021/12/11 11:56:13;;;;;;;22.27;16.80;;;9.60;78.20;;;;;;4919201;29;20039;-76
2021/12/11 11:58:39;;;;;;;23.48;17.83;;;9.60;78.20;;;;;;4928422;29;20031;-77
2021/12/11 12:01:30;;;;;;;21.52;17.10;;;9.60;78.20;;;;;;4940870;29;20027;-77
2021/12/11 12:03:56;;;;;;;20.65;16.52;;;9.60;78.40;;;;;;4941716;29;20071;-78
2021/12/11 12:06:25;;;;;;;25.08;16.98;;;9.60;78.40;;;;;;4940540;29;20035;-77
2021/12/11 12:08:55;;;;;;;19.80;16.98;;;9.60;78.30;;;;;;4956725;29;20019;-78
2021/12/11 12:11:23;;;;;;;22.52;16.85;;;9.60;78.40;;;;;;4938025;29;20457;-78
2021/12/11 12:13:49;;;;;;;20.60;16.38;;;9.60;78.50;;;;;;4938332;29;20421;-78
2021/12/11 12:16:15;;;;;;;21.38;17.23;;;9.50;78.40;;;;;;4938616;29;20070;-76
2021/12/11 12:18:42;;;;;;;21.20;17.38;;;9.50;78.40;;;;;;4957951;29;20027;-76
2021/12/11 12:21:12;;;;;;;19.98;16.58;;;9.50;78.40;;;;;;4940367;29;20023;-78
2021/12/11 12:23:39;;;;;;;21.00;16.73;;;9.50;78.60;;;;;;4957541;29;20028;-77
2021/12/11 12:26:10;;;;;;;22.02;16.90;;;9.50;78.80;;;;;;4940101;29;20023;-77
2021/12/11 12:28:36;;;;;;;19.92;16.35;;;9.50;78.80;;;;;;4939759;29;20024;-77
2021/12/11 12:31:11;;;;;;;22.08;17.45;;;9.40;79.10;;;;;;4958907;29;20376;-77
2021/12/11 12:33:37;;;;;;;21.73;17.48;;;9.40;79.20;;;;;;4943186;29;20031;-76
2021/12/11 12:36:04;;;;;;;21.35;16.58;;;9.40;79.40;;;;;;4941901;29;20023;-78
2021/12/11 12:38:32;;;;;;;20.45;17.42;;;9.40;79.60;;;;;;4938509;29;20035;-78
2021/12/11 12:41:05;;;;;;;21.15;16.98;;;9.30;79.50;;;;;;4938527;29;20023;-77
2021/12/11 12:46:32;;;;;;;23.48;18.33;;;9.40;79.70;;;;;;4924822;29;20090;-77
2021/12/11 12:48:59;;;;;;;21.90;17.33;;;9.30;79.70;;;;;;4937624;29;20074;-76
2021/12/11 12:51:26;;;;;;;21.00;17.38;;;9.30;79.70;;;;;;4937860;29;20034;-77
2021/12/11 12:53:56;;;;;;;21.48;17.27;;;9.30;79.80;;;;;;4937033;29;20039;-77
2021/12/11 12:56:28;;;;;;;20.48;17.27;;;9.30;79.80;;;;;;4937602;29;20034;-79
2021/12/11 12:59:08;;;;;;;21.42;17.48;;;9.30;79.90;;;;;;4937465;29;20043;-81
2021/12/11 13:01:52;;;;;;;20.80;17.35;;;9.30;79.80;;;;;;4937623;29;20368;-79
2021/12/11 13:04:22;;;;;;;22.23;17.70;;;9.30;79.80;;;;;;4931635;28;20028;-77
2021/12/11 13:06:55;;;;;;;23.27;18.33;;;9.30;79.90;;;;;;4937070;29;20118;-76
2021/12/11 13:09:28;;;;;;;26.38;17.38;;;9.30;79.90;;;;;;4938735;29;20034;-77
2021/12/11 13:12:05;;;;;;;27.63;17.90;;;9.30;80.00;;;;;;4937853;29;20035;-78
2021/12/11 13:14:32;;;;;;;24.17;17.15;;;9.30;80.00;;;;;;4938178;29;20027;-77
2021/12/11 13:17:03;;;;;;;25.02;18.45;;;9.30;79.90;;;;;;4938119;29;20380;-78
2021/12/11 13:19:34;;;;;;;24.52;17.65;;;9.30;79.90;;;;;;4936807;29;20483;-78
2021/12/11 13:22:17;;;;;;;30.07;18.63;;;9.30;80.10;;;;;;4953673;29;20119;-78